sensor_id;sensor_type;location;lat;lon;timestamp;P1;durP1;ratioP1;P2;durP2;ratioP2
25351;SDS011;13304;48.464;8.712;2022-09-12T00:00:12;12.27;;;6.57;;
25351;SDS011;13304;48.464;8.712;2022-09-12T00:02:39;7.72;;;5.97;;
25351;SDS011;13304;48.464;8.712;2022-09-12T00:05:05;9.65;;;5.78;;
25351;SDS011;13304;48.464;8.712;2022-09-12T00:07:31;10.00;;;6.15;;
25351;SDS011;13304;48.464;8.712;2022-09-12T00:09:59;7.10;;;6.40;;
25351;SDS011;13304;48.464;8.712;2022-09-12T00:12:25;9.65;;;6.45;;
25351;SDS011;13304;48.464;8.712;2022-09-12T00:14:50;6.57;;;5.90;;
25351;SDS011;13304;48.464;8.712;2022-09-12T00:17:19;7.40;;;6.00;;
25351;SDS011;13304;48.464;8.712;2022-09-12T00:19:44;9.13;;;6.63;;
25351;SDS011;13304;48.464;8.712;2022-09-12T00:22:13;6.93;;;6.00;;
25351;SDS011;13304;48.464;8.712;2022-09-12T00:24:39;7.30;;;6.13;;
25351;SDS011;13304;48.464;8.712;2022-09-12T00:27:05;9.13;;;6.68;;
25351;SDS011;13304;48.464;8.712;2022-09-12T00:29:31;9.80;;;6.50;;
25351;SDS011;13304;48.464;8.712;2022-09-12T00:31:56;8.55;;;7.10;;
25351;SDS011;13304;48.464;8.712;2022-09-12T00:34:22;7.25;;;6.55;;
25351;SDS011;13304;48.464;8.712;2022-09-12T00:36:48;8.40;;;6.18;;
25351;SDS011;13304;48.464;8.712;2022-09-12T00:39:14;8.60;;;6.03;;
25351;SDS011;13304;48.464;8.712;2022-09-12T00:41:41;8.32;;;6.38;;
25351;SDS011;13304;48.464;8.712;2022-09-12T00:46:52;7.55;;;6.10;;
25351;SDS011;13304;48.464;8.712;2022-09-12T00:54:34;7.47;;;5.72;;
25351;SDS011;13304;48.464;8.712;2022-09-12T00:57:13;8.43;;;5.63;;
25351;SDS011;13304;48.464;8.712;2022-09-12T00:59:43;6.63;;;5.90;;
25351;SDS011;13304;48.464;8.712;2022-09-12T01:02:14;7.40;;;5.68;;
25351;SDS011;13304;48.464;8.712;2022-09-12T01:04:40;6.82;;;5.40;;
25351;SDS011;13304;48.464;8.712;2022-09-12T01:07:12;7.50;;;5.85;;
25351;SDS011;13304;48.464;8.712;2022-09-12T01:09:39;6.28;;;5.22;;
25351;SDS011;13304;48.464;8.712;2022-09-12T01:12:08;7.43;;;6.00;;
25351;SDS011;13304;48.464;8.712;2022-09-12T01:14:35;9.23;;;6.25;;
25351;SDS011;13304;48.464;8.712;2022-09-12T01:17:01;15.15;;;6.28;;
25351;SDS011;13304;48.464;8.712;2022-09-12T01:31:14;6.60;;;5.38;;
25351;SDS011;13304;48.464;8.712;2022-09-12T01:33:55;14.80;;;5.32;;
25351;SDS011;13304;48.464;8.712;2022-09-12T01:36:47;14.27;;;5.55;;
25351;SDS011;13304;48.464;8.712;2022-09-12T01:42:38;56.20;;;5.80;;
25351;SDS011;13304;48.464;8.712;2022-09-12T01:45:17;13.75;;;5.15;;
25351;SDS011;13304;48.464;8.712;2022-09-12T01:50:33;11.75;;;5.65;;
25351;SDS011;13304;48.464;8.712;2022-09-12T01:53:24;9.00;;;5.38;;
25351;SDS011;13304;48.464;8.712;2022-09-12T01:58:27;10.77;;;5.88;;
25351;SDS011;13304;48.464;8.712;2022-09-12T02:01:03;6.07;;;5.47;;
25351;SDS011;13304;48.464;8.712;2022-09-12T02:03:40;11.38;;;5.88;;
25351;SDS011;13304;48.464;8.712;2022-09-12T02:06:19;8.73;;;5.72;;
25351;SDS011;13304;48.464;8.712;2022-09-12T02:08:51;19.67;;;6.07;;
25351;SDS011;13304;48.464;8.712;2022-09-12T02:11:20;9.70;;;5.60;;
25351;SDS011;13304;48.464;8.712;2022-09-12T02:13:56;9.23;;;4.90;;
25351;SDS011;13304;48.464;8.712;2022-09-12T02:16:44;5.25;;;4.65;;
25351;SDS011;13304;48.464;8.712;2022-09-12T02:19:16;4.38;;;3.97;;
25351;SDS011;13304;48.464;8.712;2022-09-12T02:21:47;4.30;;;3.90;;
25351;SDS011;13304;48.464;8.712;2022-09-12T02:24:17;5.20;;;4.18;;
25351;SDS011;13304;48.464;8.712;2022-09-12T02:26:57;4.88;;;4.15;;
25351;SDS011;13304;48.464;8.712;2022-09-12T02:29:28;5.30;;;4.55;;
25351;SDS011;13304;48.464;8.712;2022-09-12T02:40:06;4.78;;;3.97;;
25351;SDS011;13304;48.464;8.712;2022-09-12T02:42:34;4.78;;;4.05;;
25351;SDS011;13304;48.464;8.712;2022-09-12T02:45:01;5.50;;;4.75;;
25351;SDS011;13304;48.464;8.712;2022-09-12T02:47:29;6.68;;;4.40;;
25351;SDS011;13304;48.464;8.712;2022-09-12T02:50:03;4.70;;;4.20;;
25351;SDS011;13304;48.464;8.712;2022-09-12T02:52:29;4.90;;;4.40;;
25351;SDS011;13304;48.464;8.712;2022-09-12T02:54:56;6.30;;;4.72;;
25351;SDS011;13304;48.464;8.712;2022-09-12T02:57:26;11.60;;;4.63;;
25351;SDS011;13304;48.464;8.712;2022-09-12T02:59:52;5.57;;;4.38;;
25351;SDS011;13304;48.464;8.712;2022-09-12T03:13:49;7.22;;;4.30;;
25351;SDS011;13304;48.464;8.712;2022-09-12T03:16:34;4.60;;;3.63;;
25351;SDS011;13304;48.464;8.712;2022-09-12T03:19:25;10.60;;;4.07;;
25351;SDS011;13304;48.464;8.712;2022-09-12T03:24:29;5.18;;;3.67;;
25351;SDS011;13304;48.464;8.712;2022-09-12T03:27:06;4.50;;;4.03;;
25351;SDS011;13304;48.464;8.712;2022-09-12T03:29:42;16.48;;;4.30;;
25351;SDS011;13304;48.464;8.712;2022-09-12T03:32:12;5.05;;;4.50;;
25351;SDS011;13304;48.464;8.712;2022-09-12T03:34:37;5.78;;;5.18;;
25351;SDS011;13304;48.464;8.712;2022-09-12T03:37:03;5.72;;;5.13;;
25351;SDS011;13304;48.464;8.712;2022-09-12T03:39:32;6.50;;;4.60;;
25351;SDS011;13304;48.464;8.712;2022-09-12T03:41:58;4.78;;;4.28;;
25351;SDS011;13304;48.464;8.712;2022-09-12T03:44:24;5.75;;;4.22;;
25351;SDS011;13304;48.464;8.712;2022-09-12T03:46:50;4.72;;;4.22;;
25351;SDS011;13304;48.464;8.712;2022-09-12T03:49:16;4.20;;;3.50;;
25351;SDS011;13304;48.464;8.712;2022-09-12T03:51:42;4.45;;;3.88;;
25351;SDS011;13304;48.464;8.712;2022-09-12T03:54:08;3.72;;;3.22;;
25351;SDS011;13304;48.464;8.712;2022-09-12T03:56:35;3.50;;;3.20;;
25351;SDS011;13304;48.464;8.712;2022-09-12T03:59:03;3.75;;;3.35;;
25351;SDS011;13304;48.464;8.712;2022-09-12T04:01:30;3.88;;;3.53;;
25351;SDS011;13304;48.464;8.712;2022-09-12T04:03:56;3.20;;;2.90;;
25351;SDS011;13304;48.464;8.712;2022-09-12T04:06:22;5.90;;;3.60;;
25351;SDS011;13304;48.464;8.712;2022-09-12T04:08:51;5.63;;;3.20;;
25351;SDS011;13304;48.464;8.712;2022-09-12T04:11:19;53.90;;;4.63;;
25351;SDS011;13304;48.464;8.712;2022-09-12T04:13:45;132.02;;;6.82;;
25351;SDS011;13304;48.464;8.712;2022-09-12T04:16:11;24.02;;;4.00;;
25351;SDS011;13304;48.464;8.712;2022-09-12T04:18:38;21.98;;;4.10;;
25351;SDS011;13304;48.464;8.712;2022-09-12T04:21:08;15.02;;;3.97;;
25351;SDS011;13304;48.464;8.712;2022-09-12T04:23:36;192.73;;;6.95;;
25351;SDS011;13304;48.464;8.712;2022-09-12T04:26:04;11.52;;;3.50;;
25351;SDS011;13304;48.464;8.712;2022-09-12T04:28:32;34.28;;;4.53;;
25351;SDS011;13304;48.464;8.712;2022-09-12T04:31:03;32.08;;;4.35;;
25351;SDS011;13304;48.464;8.712;2022-09-12T04:33:31;71.28;;;4.47;;
25351;SDS011;13304;48.464;8.712;2022-09-12T04:36:05;90.88;;;5.88;;
25351;SDS011;13304;48.464;8.712;2022-09-12T04:38:33;107.18;;;5.53;;
25351;SDS011;13304;48.464;8.712;2022-09-12T04:41:00;69.55;;;5.03;;
25351;SDS011;13304;48.464;8.712;2022-09-12T04:43:26;184.45;;;7.00;;
25351;SDS011;13304;48.464;8.712;2022-09-12T04:45:51;15.27;;;4.43;;
25351;SDS011;13304;48.464;8.712;2022-09-12T04:48:17;40.85;;;4.07;;
25351;SDS011;13304;48.464;8.712;2022-09-12T04:50:43;21.50;;;4.30;;
25351;SDS011;13304;48.464;8.712;2022-09-12T04:53:09;83.75;;;4.63;;
25351;SDS011;13304;48.464;8.712;2022-09-12T04:55:34;34.42;;;4.25;;
25351;SDS011;13304;48.464;8.712;2022-09-12T04:58:01;57.45;;;5.03;;
25351;SDS011;13304;48.464;8.712;2022-09-12T05:00:27;59.72;;;4.45;;
25351;SDS011;13304;48.464;8.712;2022-09-12T05:02:53;93.40;;;6.57;;
25351;SDS011;13304;48.464;8.712;2022-09-12T05:05:18;35.08;;;4.75;;
25351;SDS011;13304;48.464;8.712;2022-09-12T05:07:44;96.72;;;5.97;;
25351;SDS011;13304;48.464;8.712;2022-09-12T05:10:10;75.20;;;4.97;;
25351;SDS011;13304;48.464;8.712;2022-09-12T05:12:36;27.92;;;4.90;;
25351;SDS011;13304;48.464;8.712;2022-09-12T05:15:02;327.73;;;10.68;;
25351;SDS011;13304;48.464;8.712;2022-09-12T05:17:28;287.83;;;9.85;;
25351;SDS011;13304;48.464;8.712;2022-09-12T05:19:57;112.65;;;5.80;;
25351;SDS011;13304;48.464;8.712;2022-09-12T05:22:22;394.67;;;11.05;;
25351;SDS011;13304;48.464;8.712;2022-09-12T05:24:49;119.50;;;6.07;;
25351;SDS011;13304;48.464;8.712;2022-09-12T05:27:14;134.85;;;7.22;;
25351;SDS011;13304;48.464;8.712;2022-09-12T05:29:40;110.80;;;5.88;;
25351;SDS011;13304;48.464;8.712;2022-09-12T05:32:07;69.50;;;6.55;;
25351;SDS011;13304;48.464;8.712;2022-09-12T05:34:33;87.93;;;6.20;;
25351;SDS011;13304;48.464;8.712;2022-09-12T05:36:59;93.32;;;7.32;;
25351;SDS011;13304;48.464;8.712;2022-09-12T05:39:25;144.60;;;7.40;;
25351;SDS011;13304;48.464;8.712;2022-09-12T05:41:51;85.00;;;6.75;;
25351;SDS011;13304;48.464;8.712;2022-09-12T05:44:16;216.70;;;8.80;;
25351;SDS011;13304;48.464;8.712;2022-09-12T05:46:42;75.32;;;6.40;;
25351;SDS011;13304;48.464;8.712;2022-09-12T05:49:11;24.58;;;5.55;;
25351;SDS011;13304;48.464;8.712;2022-09-12T05:51:42;39.40;;;5.78;;
25351;SDS011;13304;48.464;8.712;2022-09-12T05:54:10;48.80;;;6.10;;
25351;SDS011;13304;48.464;8.712;2022-09-12T05:56:38;159.30;;;7.63;;
25351;SDS011;13304;48.464;8.712;2022-09-12T05:59:26;119.15;;;6.60;;
25351;SDS011;13304;48.464;8.712;2022-09-12T06:01:52;148.23;;;7.25;;
25351;SDS011;13304;48.464;8.712;2022-09-12T06:04:18;90.50;;;6.70;;
25351;SDS011;13304;48.464;8.712;2022-09-12T06:06:44;15.07;;;4.82;;
25351;SDS011;13304;48.464;8.712;2022-09-12T06:09:11;37.78;;;5.10;;
25351;SDS011;13304;48.464;8.712;2022-09-12T06:11:41;41.55;;;5.05;;
25351;SDS011;13304;48.464;8.712;2022-09-12T06:14:08;22.42;;;4.53;;
25351;SDS011;13304;48.464;8.712;2022-09-12T06:16:36;30.13;;;4.68;;
25351;SDS011;13304;48.464;8.712;2022-09-12T06:19:03;94.05;;;12.02;;
25351;SDS011;13304;48.464;8.712;2022-09-12T06:21:43;75.38;;;6.72;;
25351;SDS011;13304;48.464;8.712;2022-09-12T06:26:35;69.57;;;6.10;;
25351;SDS011;13304;48.464;8.712;2022-09-12T06:29:01;9.75;;;4.55;;
25351;SDS011;13304;48.464;8.712;2022-09-12T06:31:29;6.28;;;4.88;;
25351;SDS011;13304;48.464;8.712;2022-09-12T06:33:58;14.70;;;4.53;;
25351;SDS011;13304;48.464;8.712;2022-09-12T06:36:26;35.63;;;4.88;;
25351;SDS011;13304;48.464;8.712;2022-09-12T06:39:01;43.30;;;5.63;;
25351;SDS011;13304;48.464;8.712;2022-09-12T06:41:31;23.30;;;4.90;;
25351;SDS011;13304;48.464;8.712;2022-09-12T06:43:58;9.90;;;4.72;;
25351;SDS011;13304;48.464;8.712;2022-09-12T06:46:24;10.40;;;4.43;;
25351;SDS011;13304;48.464;8.712;2022-09-12T06:48:51;5.95;;;4.60;;
25351;SDS011;13304;48.464;8.712;2022-09-12T06:51:18;9.60;;;4.60;;
25351;SDS011;13304;48.464;8.712;2022-09-12T06:56:16;26.88;;;7.65;;
25351;SDS011;13304;48.464;8.712;2022-09-12T06:58:43;24.90;;;5.68;;
25351;SDS011;13304;48.464;8.712;2022-09-12T07:01:15;10.27;;;5.88;;
25351;SDS011;13304;48.464;8.712;2022-09-12T07:03:42;14.90;;;5.60;;
25351;SDS011;13304;48.464;8.712;2022-09-12T07:06:13;9.20;;;6.60;;
25351;SDS011;13304;48.464;8.712;2022-09-12T07:08:40;11.63;;;6.75;;
25351;SDS011;13304;48.464;8.712;2022-09-12T07:11:17;7.53;;;5.78;;
25351;SDS011;13304;48.464;8.712;2022-09-12T07:13:45;8.88;;;5.55;;
25351;SDS011;13304;48.464;8.712;2022-09-12T07:16:13;7.73;;;6.87;;
25351;SDS011;13304;48.464;8.712;2022-09-12T07:18:40;9.13;;;6.75;;
25351;SDS011;13304;48.464;8.712;2022-09-12T07:21:07;10.63;;;7.63;;
25351;SDS011;13304;48.464;8.712;2022-09-12T07:23:37;8.48;;;7.45;;
25351;SDS011;13304;48.464;8.712;2022-09-12T07:26:04;10.10;;;7.82;;
25351;SDS011;13304;48.464;8.712;2022-09-12T07:28:30;8.27;;;6.70;;
25351;SDS011;13304;48.464;8.712;2022-09-12T07:30:57;14.25;;;6.72;;
25351;SDS011;13304;48.464;8.712;2022-09-12T07:33:35;8.70;;;7.20;;
25351;SDS011;13304;48.464;8.712;2022-09-12T07:36:05;10.27;;;7.28;;
25351;SDS011;13304;48.464;8.712;2022-09-12T07:38:34;9.02;;;7.20;;
25351;SDS011;13304;48.464;8.712;2022-09-12T07:41:00;8.30;;;7.05;;
25351;SDS011;13304;48.464;8.712;2022-09-12T07:43:37;9.68;;;8.57;;
25351;SDS011;13304;48.464;8.712;2022-09-12T07:46:04;9.88;;;8.38;;
25351;SDS011;13304;48.464;8.712;2022-09-12T07:48:30;10.57;;;7.82;;
25351;SDS011;13304;48.464;8.712;2022-09-12T07:50:59;10.18;;;8.55;;
25351;SDS011;13304;48.464;8.712;2022-09-12T07:53:31;9.50;;;8.50;;
25351;SDS011;13304;48.464;8.712;2022-09-12T07:55:59;14.30;;;9.07;;
25351;SDS011;13304;48.464;8.712;2022-09-12T07:58:25;8.60;;;7.70;;
25351;SDS011;13304;48.464;8.712;2022-09-12T08:00:50;9.82;;;8.43;;
25351;SDS011;13304;48.464;8.712;2022-09-12T08:03:16;10.18;;;8.15;;
25351;SDS011;13304;48.464;8.712;2022-09-12T08:05:42;9.85;;;7.97;;
25351;SDS011;13304;48.464;8.712;2022-09-12T08:08:08;10.48;;;9.05;;
25351;SDS011;13304;48.464;8.712;2022-09-12T08:10:34;9.48;;;8.00;;
25351;SDS011;13304;48.464;8.712;2022-09-12T08:13:00;9.63;;;8.57;;
25351;SDS011;13304;48.464;8.712;2022-09-12T08:15:27;8.70;;;7.53;;
25351;SDS011;13304;48.464;8.712;2022-09-12T08:17:55;8.88;;;7.80;;
25351;SDS011;13304;48.464;8.712;2022-09-12T08:20:20;10.43;;;7.70;;
25351;SDS011;13304;48.464;8.712;2022-09-12T08:22:46;11.85;;;8.20;;
25351;SDS011;13304;48.464;8.712;2022-09-12T08:25:12;10.73;;;7.80;;
25351;SDS011;13304;48.464;8.712;2022-09-12T08:27:38;9.52;;;7.63;;
25351;SDS011;13304;48.464;8.712;2022-09-12T08:30:04;8.10;;;6.80;;
25351;SDS011;13304;48.464;8.712;2022-09-12T08:32:30;8.85;;;7.15;;
25351;SDS011;13304;48.464;8.712;2022-09-12T08:34:56;8.27;;;6.93;;
25351;SDS011;13304;48.464;8.712;2022-09-12T08:37:22;7.55;;;6.82;;
25351;SDS011;13304;48.464;8.712;2022-09-12T08:39:48;9.80;;;6.65;;
25351;SDS011;13304;48.464;8.712;2022-09-12T08:42:19;8.65;;;6.45;;
25351;SDS011;13304;48.464;8.712;2022-09-12T08:45:42;8.38;;;6.15;;
25351;SDS011;13304;48.464;8.712;2022-09-12T08:48:09;8.02;;;5.20;;
25351;SDS011;13304;48.464;8.712;2022-09-12T08:50:36;6.13;;;5.40;;
25351;SDS011;13304;48.464;8.712;2022-09-12T08:53:03;6.20;;;5.13;;
25351;SDS011;13304;48.464;8.712;2022-09-12T08:55:37;6.43;;;5.38;;
25351;SDS011;13304;48.464;8.712;2022-09-12T08:58:33;5.60;;;4.85;;
25351;SDS011;13304;48.464;8.712;2022-09-12T09:01:13;6.50;;;5.22;;
25351;SDS011;13304;48.464;8.712;2022-09-12T09:06:38;8.43;;;5.47;;
25351;SDS011;13304;48.464;8.712;2022-09-12T09:12:16;4.95;;;4.45;;
25351;SDS011;13304;48.464;8.712;2022-09-12T09:17:52;5.47;;;4.10;;
25351;SDS011;13304;48.464;8.712;2022-09-12T09:20:29;7.03;;;3.80;;
25351;SDS011;13304;48.464;8.712;2022-09-12T09:28:38;6.00;;;3.80;;
25351;SDS011;13304;48.464;8.712;2022-09-12T09:31:17;9.77;;;3.85;;
25351;SDS011;13304;48.464;8.712;2022-09-12T09:33:48;8.77;;;3.72;;
25351;SDS011;13304;48.464;8.712;2022-09-12T09:44:45;5.50;;;2.90;;
25351;SDS011;13304;48.464;8.712;2022-09-12T09:47:13;4.75;;;3.72;;
25351;SDS011;13304;48.464;8.712;2022-09-12T09:49:39;5.72;;;2.90;;
25351;SDS011;13304;48.464;8.712;2022-09-12T09:52:06;4.90;;;2.67;;
25351;SDS011;13304;48.464;8.712;2022-09-12T09:57:45;3.30;;;2.80;;
25351;SDS011;13304;48.464;8.712;2022-09-12T10:00:30;6.63;;;3.08;;
25351;SDS011;13304;48.464;8.712;2022-09-12T10:05:29;3.63;;;2.67;;
25351;SDS011;13304;48.464;8.712;2022-09-12T10:07:56;4.47;;;2.50;;
25351;SDS011;13304;48.464;8.712;2022-09-12T10:10:22;4.20;;;2.75;;
25351;SDS011;13304;48.464;8.712;2022-09-12T10:12:49;3.95;;;2.50;;
25351;SDS011;13304;48.464;8.712;2022-09-12T10:15:17;3.15;;;2.50;;
25351;SDS011;13304;48.464;8.712;2022-09-12T10:17:48;3.03;;;2.35;;
25351;SDS011;13304;48.464;8.712;2022-09-12T10:20:34;3.50;;;2.80;;
25351;SDS011;13304;48.464;8.712;2022-09-12T10:23:26;2.90;;;2.33;;
25351;SDS011;13304;48.464;8.712;2022-09-12T10:25:55;4.65;;;2.47;;
25351;SDS011;13304;48.464;8.712;2022-09-12T10:28:33;3.83;;;2.28;;
25351;SDS011;13304;48.464;8.712;2022-09-12T10:31:07;2.63;;;2.00;;
25351;SDS011;13304;48.464;8.712;2022-09-12T10:33:47;3.08;;;2.00;;
25351;SDS011;13304;48.464;8.712;2022-09-12T10:38:56;4.15;;;2.38;;
25351;SDS011;13304;48.464;8.712;2022-09-12T10:41:23;3.97;;;2.55;;
25351;SDS011;13304;48.464;8.712;2022-09-12T10:43:49;2.45;;;2.08;;
25351;SDS011;13304;48.464;8.712;2022-09-12T10:48:44;3.42;;;2.40;;
25351;SDS011;13304;48.464;8.712;2022-09-12T10:53:53;3.85;;;2.47;;
25351;SDS011;13304;48.464;8.712;2022-09-12T10:56:32;5.97;;;2.92;;
25351;SDS011;13304;48.464;8.712;2022-09-12T11:01:41;3.80;;;2.40;;
25351;SDS011;13304;48.464;8.712;2022-09-12T11:05:01;4.53;;;2.70;;
25351;SDS011;13304;48.464;8.712;2022-09-12T11:09:47;2.78;;;1.60;;
25351;SDS011;13304;48.464;8.712;2022-09-12T11:12:40;2.63;;;1.73;;
25351;SDS011;13304;48.464;8.712;2022-09-12T11:34:15;3.75;;;1.63;;
25351;SDS011;13304;48.464;8.712;2022-09-12T11:39:58;2.55;;;1.70;;
25351;SDS011;13304;48.464;8.712;2022-09-12T11:42:38;2.45;;;1.58;;
25351;SDS011;13304;48.464;8.712;2022-09-12T11:45:15;2.85;;;1.48;;
25351;SDS011;13304;48.464;8.712;2022-09-12T11:47:51;3.53;;;1.52;;
25351;SDS011;13304;48.464;8.712;2022-09-12T11:50:27;2.33;;;1.40;;
25351;SDS011;13304;48.464;8.712;2022-09-12T11:52:56;1.92;;;1.48;;
25351;SDS011;13304;48.464;8.712;2022-09-12T11:55:43;1.58;;;1.30;;
25351;SDS011;13304;48.464;8.712;2022-09-12T11:58:17;2.55;;;1.15;;
25351;SDS011;13304;48.464;8.712;2022-09-12T12:00:50;2.47;;;1.35;;
25351;SDS011;13304;48.464;8.712;2022-09-12T12:03:27;4.30;;;1.20;;
25351;SDS011;13304;48.464;8.712;2022-09-12T12:05:59;2.42;;;1.50;;
25351;SDS011;13304;48.464;8.712;2022-09-12T12:08:30;1.42;;;1.30;;
25351;SDS011;13304;48.464;8.712;2022-09-12T12:11:02;1.55;;;1.25;;
25351;SDS011;13304;48.464;8.712;2022-09-12T12:16:07;2.55;;;1.20;;
25351;SDS011;13304;48.464;8.712;2022-09-12T12:18:45;1.42;;;1.17;;
25351;SDS011;13304;48.464;8.712;2022-09-12T12:29:10;1.75;;;1.35;;
25351;SDS011;13304;48.464;8.712;2022-09-12T12:34:37;1.73;;;1.40;;
25351;SDS011;13304;48.464;8.712;2022-09-12T12:40:20;5.13;;;1.48;;
25351;SDS011;13304;48.464;8.712;2022-09-12T12:47:52;1.70;;;1.30;;
25351;SDS011;13304;48.464;8.712;2022-09-12T12:50:27;1.77;;;1.30;;
25351;SDS011;13304;48.464;8.712;2022-09-12T12:58:03;2.70;;;1.60;;
25351;SDS011;13304;48.464;8.712;2022-09-12T13:00:38;1.80;;;1.20;;
25351;SDS011;13304;48.464;8.712;2022-09-12T13:08:45;1.80;;;1.10;;
25351;SDS011;13304;48.464;8.712;2022-09-12T13:11:34;1.40;;;1.20;;
25351;SDS011;13304;48.464;8.712;2022-09-12T13:17:05;1.67;;;1.15;;
25351;SDS011;13304;48.464;8.712;2022-09-12T13:19:38;1.83;;;1.08;;
25351;SDS011;13304;48.464;8.712;2022-09-12T13:22:06;1.65;;;1.20;;
25351;SDS011;13304;48.464;8.712;2022-09-12T13:24:33;1.95;;;1.15;;
25351;SDS011;13304;48.464;8.712;2022-09-12T13:27:20;2.22;;;1.40;;
25351;SDS011;13304;48.464;8.712;2022-09-12T13:29:48;2.08;;;1.25;;
25351;SDS011;13304;48.464;8.712;2022-09-12T13:32:14;2.00;;;1.25;;
25351;SDS011;13304;48.464;8.712;2022-09-12T13:37:41;2.65;;;1.23;;
25351;SDS011;13304;48.464;8.712;2022-09-12T13:40:35;2.13;;;1.20;;
25351;SDS011;13304;48.464;8.712;2022-09-12T13:43:22;1.40;;;1.10;;
25351;SDS011;13304;48.464;8.712;2022-09-12T13:46:00;3.20;;;1.30;;
25351;SDS011;13304;48.464;8.712;2022-09-12T13:48:26;2.88;;;1.40;;
25351;SDS011;13304;48.464;8.712;2022-09-12T13:50:53;1.98;;;1.17;;
25351;SDS011;13304;48.464;8.712;2022-09-12T13:53:23;1.42;;;1.15;;
25351;SDS011;13304;48.464;8.712;2022-09-12T13:56:14;2.85;;;1.30;;
25351;SDS011;13304;48.464;8.712;2022-09-12T13:58:57;1.83;;;1.15;;
25351;SDS011;13304;48.464;8.712;2022-09-12T14:01:41;2.85;;;1.00;;
25351;SDS011;13304;48.464;8.712;2022-09-12T14:04:22;1.17;;;1.00;;
25351;SDS011;13304;48.464;8.712;2022-09-12T14:07:18;1.17;;;1.00;;
25351;SDS011;13304;48.464;8.712;2022-09-12T14:09:53;2.28;;;1.17;;
25351;SDS011;13304;48.464;8.712;2022-09-12T14:14:51;3.85;;;1.20;;
25351;SDS011;13304;48.464;8.712;2022-09-12T14:17:21;3.80;;;1.00;;
25351;SDS011;13304;48.464;8.712;2022-09-12T14:20:21;1.65;;;1.10;;
25351;SDS011;13304;48.464;8.712;2022-09-12T14:22:48;2.13;;;1.00;;
25351;SDS011;13304;48.464;8.712;2022-09-12T14:25:17;3.53;;;1.40;;
25351;SDS011;13304;48.464;8.712;2022-09-12T14:27:49;1.38;;;1.25;;
25351;SDS011;13304;48.464;8.712;2022-09-12T14:30:31;1.83;;;1.23;;
25351;SDS011;13304;48.464;8.712;2022-09-12T14:35:41;1.50;;;1.20;;
25351;SDS011;13304;48.464;8.712;2022-09-12T14:38:07;1.73;;;1.20;;
25351;SDS011;13304;48.464;8.712;2022-09-12T14:40:44;1.10;;;1.00;;
25351;SDS011;13304;48.464;8.712;2022-09-12T14:43:31;1.23;;;1.08;;
25351;SDS011;13304;48.464;8.712;2022-09-12T14:46:00;1.58;;;1.20;;
25351;SDS011;13304;48.464;8.712;2022-09-12T14:48:29;2.30;;;1.30;;
25351;SDS011;13304;48.464;8.712;2022-09-12T14:50:58;1.85;;;1.10;;
25351;SDS011;13304;48.464;8.712;2022-09-12T14:53:32;1.10;;;1.00;;
25351;SDS011;13304;48.464;8.712;2022-09-12T14:56:10;2.60;;;0.90;;
25351;SDS011;13304;48.464;8.712;2022-09-12T14:58:40;5.43;;;1.08;;
25351;SDS011;13304;48.464;8.712;2022-09-12T15:05:58;1.00;;;0.90;;
25351;SDS011;13304;48.464;8.712;2022-09-12T15:10:53;1.42;;;1.10;;
25351;SDS011;13304;48.464;8.712;2022-09-12T15:13:20;7.57;;;1.10;;
25351;SDS011;13304;48.464;8.712;2022-09-12T15:15:52;1.45;;;1.00;;
25351;SDS011;13304;48.464;8.712;2022-09-12T15:18:20;3.30;;;1.25;;
25351;SDS011;13304;48.464;8.712;2022-09-12T15:20:49;2.08;;;1.20;;
25351;SDS011;13304;48.464;8.712;2022-09-12T15:25:49;3.40;;;1.27;;
25351;SDS011;13304;48.464;8.712;2022-09-12T15:28:16;1.10;;;1.00;;
25351;SDS011;13304;48.464;8.712;2022-09-12T15:30:45;1.27;;;1.10;;
25351;SDS011;13304;48.464;8.712;2022-09-12T15:33:13;1.17;;;0.98;;
25351;SDS011;13304;48.464;8.712;2022-09-12T15:35:39;1.42;;;0.93;;
25351;SDS011;13304;48.464;8.712;2022-09-12T15:38:05;1.95;;;1.00;;
25351;SDS011;13304;48.464;8.712;2022-09-12T15:40:31;4.70;;;1.02;;
25351;SDS011;13304;48.464;8.712;2022-09-12T15:43:00;1.10;;;0.80;;
25351;SDS011;13304;48.464;8.712;2022-09-12T15:45:26;1.92;;;0.98;;
25351;SDS011;13304;48.464;8.712;2022-09-12T15:47:54;2.80;;;1.00;;
25351;SDS011;13304;48.464;8.712;2022-09-12T15:50:20;1.15;;;0.98;;
25351;SDS011;13304;48.464;8.712;2022-09-12T15:52:46;1.33;;;0.90;;
25351;SDS011;13304;48.464;8.712;2022-09-12T15:55:23;1.38;;;0.90;;
25351;SDS011;13304;48.464;8.712;2022-09-12T15:57:51;1.00;;;0.90;;
25351;SDS011;13304;48.464;8.712;2022-09-12T16:00:17;1.83;;;0.90;;
25351;SDS011;13304;48.464;8.712;2022-09-12T16:02:47;2.55;;;0.90;;
25351;SDS011;13304;48.464;8.712;2022-09-12T16:05:16;1.95;;;1.02;;
25351;SDS011;13304;48.464;8.712;2022-09-12T16:07:47;2.95;;;0.90;;
25351;SDS011;13304;48.464;8.712;2022-09-12T16:10:17;1.83;;;1.02;;
25351;SDS011;13304;48.464;8.712;2022-09-12T16:12:45;1.80;;;1.05;;
25351;SDS011;13304;48.464;8.712;2022-09-12T16:15:12;3.13;;;1.17;;
25351;SDS011;13304;48.464;8.712;2022-09-12T16:17:41;1.20;;;0.80;;
25351;SDS011;13304;48.464;8.712;2022-09-12T16:20:07;3.25;;;0.90;;
25351;SDS011;13304;48.464;8.712;2022-09-12T16:22:33;2.90;;;0.80;;
25351;SDS011;13304;48.464;8.712;2022-09-12T16:24:59;2.30;;;0.75;;
25351;SDS011;13304;48.464;8.712;2022-09-12T16:27:25;1.73;;;1.05;;
25351;SDS011;13304;48.464;8.712;2022-09-12T16:29:51;2.58;;;0.98;;
25351;SDS011;13304;48.464;8.712;2022-09-12T16:32:17;0.82;;;0.70;;
25351;SDS011;13304;48.464;8.712;2022-09-12T16:34:42;2.58;;;1.08;;
25351;SDS011;13304;48.464;8.712;2022-09-12T16:37:08;0.98;;;0.80;;
25351;SDS011;13304;48.464;8.712;2022-09-12T16:39:34;1.83;;;0.88;;
25351;SDS011;13304;48.464;8.712;2022-09-12T16:42:00;1.10;;;0.80;;
25351;SDS011;13304;48.464;8.712;2022-09-12T16:44:26;1.50;;;0.90;;
25351;SDS011;13304;48.464;8.712;2022-09-12T16:46:51;2.58;;;1.08;;
25351;SDS011;13304;48.464;8.712;2022-09-12T16:49:18;2.15;;;0.80;;
25351;SDS011;13304;48.464;8.712;2022-09-12T16:51:43;1.40;;;0.80;;
25351;SDS011;13304;48.464;8.712;2022-09-12T16:54:12;3.60;;;1.00;;
25351;SDS011;13304;48.464;8.712;2022-09-12T16:56:39;1.40;;;1.00;;
25351;SDS011;13304;48.464;8.712;2022-09-12T16:59:06;0.95;;;0.80;;
25351;SDS011;13304;48.464;8.712;2022-09-12T17:01:34;17.15;;;1.40;;
25351;SDS011;13304;48.464;8.712;2022-09-12T17:04:00;1.55;;;1.00;;
25351;SDS011;13304;48.464;8.712;2022-09-12T17:06:26;1.92;;;1.20;;
25351;SDS011;13304;48.464;8.712;2022-09-12T17:08:53;3.25;;;1.30;;
25351;SDS011;13304;48.464;8.712;2022-09-12T17:11:23;1.63;;;1.05;;
25351;SDS011;13304;48.464;8.712;2022-09-12T17:13:53;1.20;;;0.82;;
25351;SDS011;13304;48.464;8.712;2022-09-12T17:16:20;2.22;;;1.20;;
25351;SDS011;13304;48.464;8.712;2022-09-12T17:18:47;3.95;;;1.08;;
25351;SDS011;13304;48.464;8.712;2022-09-12T17:21:13;1.95;;;1.10;;
25351;SDS011;13304;48.464;8.712;2022-09-12T17:23:39;1.10;;;1.00;;
25351;SDS011;13304;48.464;8.712;2022-09-12T17:26:06;1.30;;;1.13;;
25351;SDS011;13304;48.464;8.712;2022-09-12T17:28:34;2.05;;;1.10;;
25351;SDS011;13304;48.464;8.712;2022-09-12T17:31:01;2.88;;;1.30;;
25351;SDS011;13304;48.464;8.712;2022-09-12T17:33:29;3.17;;;1.30;;
25351;SDS011;13304;48.464;8.712;2022-09-12T17:36:02;5.20;;;1.80;;
25351;SDS011;13304;48.464;8.712;2022-09-12T17:38:33;6.53;;;2.00;;
25351;SDS011;13304;48.464;8.712;2022-09-12T17:41:08;10.20;;;1.95;;
25351;SDS011;13304;48.464;8.712;2022-09-12T17:43:45;3.92;;;1.40;;
25351;SDS011;13304;48.464;8.712;2022-09-12T17:46:14;3.33;;;1.27;;
25351;SDS011;13304;48.464;8.712;2022-09-12T17:48:40;1.90;;;1.27;;
25351;SDS011;13304;48.464;8.712;2022-09-12T17:51:07;3.25;;;1.95;;
25351;SDS011;13304;48.464;8.712;2022-09-12T17:53:33;4.55;;;1.48;;